createdAt,value
2023-11-23T00:03:20.713Z,33.42
2023-11-23T00:08:22.201Z,38.00
2023-11-23T00:13:23.652Z,34.58
2023-11-23T00:18:25.250Z,36.22
2023-11-23T00:23:26.803Z,37.75
2023-11-23T00:28:28.278Z,36.65
2023-11-23T00:33:29.895Z,38.90
2023-11-23T00:38:31.498Z,38.30
2023-11-23T00:43:32.977Z,41.40
2023-11-23T00:48:34.565Z,35.60
2023-11-23T00:53:36.139Z,37.08
2023-11-23T00:58:37.724Z,37.22
2023-11-23T01:03:39.915Z,31.23
2023-11-23T01:08:41.528Z,37.10
2023-11-23T01:13:43.107Z,37.65
2023-11-23T01:18:44.818Z,34.33
2023-11-23T01:23:46.889Z,37.85
2023-11-23T01:28:48.451Z,37.78
2023-11-23T01:33:49.980Z,42.05
2023-11-23T01:38:51.542Z,38.60
2023-11-23T01:43:53.100Z,41.95
2023-11-23T01:48:56.616Z,42.67
2023-11-23T01:53:59.292Z,36.78
2023-11-23T01:59:00.936Z,37.80
2023-11-23T02:04:03.032Z,38.65
2023-11-23T02:09:04.913Z,36.22
2023-11-23T02:14:07.891Z,38.90
2023-11-23T02:19:09.745Z,36.63
2023-11-23T02:24:12.861Z,36.80
2023-11-23T02:29:14.584Z,38.92
2023-11-23T02:34:16.070Z,37.70
2023-11-23T02:39:17.623Z,35.47
2023-11-23T02:44:19.181Z,36.92
2023-11-23T02:49:20.670Z,38.00
2023-11-23T02:54:22.232Z,35.85
2023-11-23T02:59:23.809Z,40.50
2023-11-23T03:04:25.380Z,39.72
2023-11-23T03:09:26.871Z,37.85
2023-11-23T03:14:28.561Z,36.15
2023-11-23T03:19:30.112Z,34.75
2023-11-23T03:24:32.123Z,35.42
2023-11-23T03:29:34.815Z,32.78
2023-11-23T03:34:36.265Z,31.38
2023-11-23T03:39:37.753Z,33.08
2023-11-23T03:44:39.253Z,33.90
2023-11-23T03:49:40.729Z,31.90
2023-11-23T03:54:42.232Z,30.25
2023-11-23T03:59:43.724Z,31.17
2023-11-23T04:04:45.187Z,29.38
2023-11-23T04:09:46.678Z,30.60
2023-11-23T04:14:48.229Z,27.52
2023-11-23T04:19:49.726Z,32.28
2023-11-23T04:24:51.254Z,28.55
2023-11-23T04:29:52.790Z,26.13
2023-11-23T04:34:54.272Z,25.40
2023-11-23T04:39:55.763Z,22.40
2023-11-23T04:44:57.243Z,24.98
2023-11-23T04:49:59.332Z,27.88
2023-11-23T04:55:00.835Z,24.23
2023-11-23T05:00:02.381Z,21.88
2023-11-23T05:05:04.256Z,22.08
2023-11-23T05:10:09.158Z,19.10
2023-11-23T05:15:11.214Z,24.00
2023-11-23T05:20:13.715Z,20.38
2023-11-23T05:25:15.928Z,23.25
2023-11-23T05:30:21.079Z,22.65
2023-11-23T05:35:22.617Z,24.52
2023-11-23T05:40:24.172Z,24.77
2023-11-23T05:45:26.792Z,24.77
2023-11-23T05:50:28.267Z,23.35
2023-11-23T05:55:29.844Z,21.10
2023-11-23T06:00:32.447Z,22.67
2023-11-23T06:05:34.132Z,20.05
2023-11-23T06:10:35.687Z,20.33
2023-11-23T06:15:37.144Z,18.73
2023-11-23T06:20:38.628Z,17.85
2023-11-23T06:25:40.471Z,19.13
2023-11-23T06:30:42.026Z,18.38
2023-11-23T06:35:44.158Z,19.25
2023-11-23T06:40:45.797Z,18.00
2023-11-23T06:45:47.461Z,18.67
2023-11-23T06:50:49.020Z,14.48
2023-11-23T06:55:50.482Z,18.23
2023-11-23T07:00:51.923Z,19.17
2023-11-23T07:05:53.402Z,16.35
2023-11-23T07:10:55.079Z,16.30
2023-11-23T07:15:56.550Z,15.90
2023-11-23T07:20:58.794Z,17.45
2023-11-23T07:26:00.326Z,17.75
2023-11-23T07:31:02.388Z,18.08
2023-11-23T07:36:05.074Z,18.63
2023-11-23T07:41:07.868Z,16.30
2023-11-23T07:46:10.334Z,17.73
2023-11-23T07:51:11.799Z,16.25
2023-11-23T07:56:15.972Z,15.95
2023-11-23T08:01:17.439Z,21.25
2023-11-23T08:06:20.631Z,16.77
2023-11-23T08:11:22.698Z,18.80
2023-11-23T08:16:24.469Z,12.43
2023-11-23T08:21:26.335Z,12.40
2023-11-23T08:26:29.293Z,12.77
2023-11-23T08:31:30.841Z,12.70
2023-11-23T08:36:32.407Z,16.17
2023-11-23T08:41:33.921Z,11.20
2023-11-23T08:46:36.290Z,14.52
2023-11-23T08:51:38.501Z,11.48
2023-11-23T08:56:39.964Z,13.57
2023-11-23T09:01:44.836Z,13.60
2023-11-23T09:06:48.651Z,13.95
2023-11-23T09:11:50.137Z,12.43
2023-11-23T09:16:51.678Z,12.73
2023-11-23T09:21:54.656Z,12.35
2023-11-23T09:26:56.120Z,11.52
2023-11-23T09:31:57.609Z,11.63
2023-11-23T09:36:59.399Z,10.27
2023-11-23T09:42:05.192Z,9.68
2023-11-23T09:47:07.200Z,10.10
2023-11-23T09:52:08.691Z,8.90
2023-11-23T09:57:10.237Z,7.50
2023-11-23T10:02:15.126Z,7.43
2023-11-23T10:07:17.930Z,7.95
2023-11-23T10:12:20.315Z,8.02
2023-11-23T10:17:22.051Z,6.63
2023-11-23T10:22:23.592Z,7.88
2023-11-23T10:27:25.150Z,8.65
2023-11-23T10:32:27.667Z,9.00
2023-11-23T10:37:30.649Z,10.60
2023-11-23T10:42:36.653Z,9.07
2023-11-23T10:47:39.481Z,8.85
2023-11-23T10:52:45.645Z,8.20
2023-11-23T10:57:57.285Z,8.95
2023-11-23T11:03:01.401Z,12.27
2023-11-23T11:08:06.410Z,7.85
2023-11-23T11:13:11.861Z,8.20
2023-11-23T11:18:13.464Z,6.20
2023-11-23T11:23:15.244Z,7.80
2023-11-23T11:28:16.759Z,7.90
2023-11-23T11:33:19.158Z,8.38
2023-11-23T11:38:20.769Z,6.93
2023-11-23T11:43:22.494Z,6.00
2023-11-23T11:48:24.064Z,6.05
2023-11-23T11:53:26.007Z,7.63
2023-11-23T11:58:28.025Z,9.25
2023-11-23T12:03:29.569Z,6.95
2023-11-23T12:08:37.840Z,7.30
2023-11-23T12:13:39.310Z,9.18
2023-11-23T12:18:41.992Z,6.25
2023-11-23T12:23:44.633Z,6.90
2023-11-23T12:28:50.501Z,5.95
2023-11-23T12:33:51.965Z,7.13
2023-11-23T12:38:53.533Z,8.43
2023-11-23T12:43:55.066Z,8.45
2023-11-23T12:48:56.570Z,9.02
2023-11-23T12:53:58.302Z,8.38
2023-11-23T12:58:59.761Z,6.75
2023-11-23T13:04:04.893Z,7.28
2023-11-23T13:09:13.005Z,10.73
2023-11-23T13:14:16.708Z,6.93
2023-11-23T13:19:27.028Z,8.90
2023-11-23T13:24:37.816Z,6.35
2023-11-23T13:29:39.653Z,9.88
2023-11-23T13:34:41.751Z,9.98
2023-11-23T13:39:43.309Z,8.00
2023-11-23T13:44:45.875Z,14.60
2023-11-23T13:49:47.368Z,10.57
2023-11-23T13:54:49.315Z,9.07
2023-11-23T13:59:51.012Z,7.72
2023-11-23T14:04:52.855Z,7.63
2023-11-23T14:09:54.309Z,9.98
2023-11-23T14:14:55.900Z,8.75
2023-11-23T14:19:59.435Z,10.15
2023-11-23T14:25:01.836Z,9.02
2023-11-23T14:30:04.847Z,7.18
2023-11-23T14:35:07.761Z,12.98
2023-11-23T14:40:20.113Z,18.83
2023-11-23T14:45:22.957Z,13.82
2023-11-23T14:50:29.488Z,10.13
2023-11-23T14:55:31.216Z,8.65
2023-11-23T15:00:32.717Z,8.40
2023-11-23T15:05:34.208Z,11.77
2023-11-23T15:10:35.774Z,9.95
2023-11-23T15:15:37.418Z,10.10
2023-11-23T15:20:40.228Z,11.75
2023-11-23T15:25:46.957Z,13.05
2023-11-23T15:30:48.772Z,11.43
2023-11-23T15:35:50.705Z,9.23
2023-11-23T15:40:52.232Z,11.43
2023-11-23T15:45:53.735Z,6.85
2023-11-23T15:50:55.252Z,7.75
2023-11-23T15:55:56.745Z,9.45
2023-11-23T16:00:58.265Z,9.43
2023-11-23T16:05:59.864Z,8.20
2023-11-23T16:11:01.800Z,8.70
2023-11-23T16:16:03.338Z,8.05
2023-11-23T16:21:06.550Z,8.27
2023-11-23T16:26:08.072Z,6.30
2023-11-23T16:31:09.567Z,6.93
2023-11-23T16:36:26.397Z,7.68
2023-11-23T16:41:35.088Z,6.38
2023-11-23T16:46:36.586Z,5.43
2023-11-23T16:51:39.180Z,7.32
2023-11-23T16:56:40.666Z,7.63
2023-11-23T17:01:42.296Z,6.93
2023-11-23T17:06:45.359Z,8.35
2023-11-23T17:11:50.859Z,8.85
2023-11-23T17:16:53.332Z,8.20
2023-11-23T17:21:57.866Z,7.60
2023-11-23T17:26:59.409Z,9.52
2023-11-23T17:32:04.532Z,5.30
2023-11-23T17:37:06.091Z,8.57
2023-11-23T17:42:07.808Z,8.38
2023-11-23T17:47:09.463Z,5.13
2023-11-23T17:52:11.747Z,4.22
2023-11-23T17:57:13.314Z,5.45
2023-11-23T18:02:19.936Z,4.78
2023-11-23T18:07:21.692Z,5.93
2023-11-23T18:12:23.691Z,4.90
2023-11-23T18:17:25.241Z,4.20
2023-11-23T18:22:26.947Z,3.75
2023-11-23T18:27:28.466Z,4.13
2023-11-23T18:32:33.282Z,7.10
2023-11-23T18:37:34.955Z,7.07
2023-11-23T18:42:40.308Z,6.85
2023-11-23T18:47:45.398Z,6.43
2023-11-23T18:52:46.911Z,8.25
2023-11-23T18:57:48.418Z,8.57
2023-11-23T19:02:51.333Z,8.77
2023-11-23T19:07:53.350Z,7.78
2023-11-23T19:13:03.497Z,9.52
2023-11-23T19:18:09.004Z,7.43
2023-11-23T19:23:11.302Z,7.88
2023-11-23T19:28:13.240Z,8.63
2023-11-23T19:33:15.071Z,7.57
2023-11-23T19:38:16.753Z,11.25
2023-11-23T19:43:18.632Z,8.25
2023-11-23T19:48:20.473Z,7.82
2023-11-23T19:53:26.815Z,7.20
2023-11-23T19:58:28.359Z,7.15
2023-11-23T20:03:29.927Z,6.15
2023-11-23T20:08:32.602Z,8.23
2023-11-23T20:13:34.167Z,5.97
2023-11-23T20:18:35.771Z,5.90
2023-11-23T20:23:39.578Z,4.47
2023-11-23T20:28:41.171Z,3.80
2023-11-23T20:33:42.793Z,4.93
2023-11-23T20:38:45.244Z,6.05
2023-11-23T20:43:46.742Z,7.03
2023-11-23T20:48:50.942Z,6.43
2023-11-23T20:53:53.795Z,3.65
2023-11-23T20:58:59.661Z,4.05
2023-11-23T21:04:01.803Z,3.50
2023-11-23T21:09:04.562Z,4.65
2023-11-23T21:14:08.249Z,3.40
2023-11-23T21:19:09.835Z,3.08
2023-11-23T21:24:11.645Z,2.75
2023-11-23T21:29:13.192Z,3.50
2023-11-23T21:34:14.881Z,3.90
2023-11-23T21:39:17.314Z,3.10
2023-11-23T21:44:20.393Z,3.22
2023-11-23T21:49:21.990Z,2.70
2023-11-23T21:54:23.503Z,2.55
2023-11-23T21:59:26.687Z,3.17
2023-11-23T22:04:28.141Z,3.25
2023-11-23T22:09:31.505Z,2.67
2023-11-23T22:14:33.144Z,2.70
2023-11-23T22:19:34.870Z,4.32
2023-11-23T22:24:36.753Z,3.08
2023-11-23T22:29:38.288Z,2.05
2023-11-23T22:34:40.357Z,2.30
2023-11-23T22:39:42.220Z,3.03
2023-11-23T22:44:44.041Z,2.85
2023-11-23T22:49:45.526Z,3.20
2023-11-23T22:54:47.797Z,1.65
2023-11-23T22:59:49.335Z,3.38
2023-11-23T23:04:52.581Z,2.50
2023-11-23T23:09:54.253Z,3.03
2023-11-23T23:14:55.759Z,3.88
2023-11-23T23:19:57.218Z,3.35
2023-11-23T23:24:58.799Z,5.45
2023-11-23T23:30:00.309Z,3.13
2023-11-23T23:35:01.736Z,0.95
2023-11-23T23:40:05.670Z,0.57
2023-11-23T23:45:07.672Z,1.02
2023-11-23T23:50:09.500Z,1.20
2023-11-23T23:55:11.084Z,1.08
